createdAt,value
2019-01-30T00:00:20.244Z,-4.5
2019-01-30T00:01:20.153Z,-4.5
2019-01-30T00:04:19.537Z,-4.3
2019-01-30T00:05:19.926Z,-4.3
2019-01-30T00:06:20.119Z,-4.3
2019-01-30T00:07:20.014Z,-4.3
2019-01-30T00:08:19.891Z,-4.2
2019-01-30T00:09:19.787Z,-4.3
2019-01-30T00:10:19.657Z,-4.3
2019-01-30T00:11:19.534Z,-4.4
2019-01-30T00:12:19.437Z,-4.5
2019-01-30T00:13:19.337Z,-4.5
2019-01-30T00:14:19.237Z,-4.5
2019-01-30T00:15:19.596Z,-4.5
2019-01-30T00:16:19.501Z,-4.4
2019-01-30T00:17:19.438Z,-4.4
2019-01-30T00:18:19.310Z,-4.4
2019-01-30T00:19:19.245Z,-4.4
2019-01-30T00:20:19.140Z,-4.4
2019-01-30T00:21:19.041Z,-4.4
2019-01-30T00:22:18.938Z,-4.4
2019-01-30T00:23:18.853Z,-4.4
2019-01-30T00:24:18.740Z,-4.4
2019-01-30T00:25:19.065Z,-4.4
2019-01-30T00:26:18.965Z,-4.4
2019-01-30T00:27:18.850Z,-4.4
2019-01-30T00:28:18.780Z,-4.4
2019-01-30T00:29:18.678Z,-4.2
2019-01-30T00:30:18.591Z,-4.2
2019-01-30T00:33:17.955Z,-3.9
2019-01-30T00:34:17.942Z,-3.8
2019-01-30T00:35:18.279Z,-3.7
2019-01-30T00:36:18.195Z,-3.7
2019-01-30T00:37:18.083Z,-3.7
2019-01-30T00:38:18.005Z,-3.7
2019-01-30T00:39:17.892Z,-3.7
2019-01-30T00:40:17.767Z,-3.6
2019-01-30T00:41:17.665Z,-3.7
2019-01-30T00:42:17.574Z,-3.7
2019-01-30T00:43:17.463Z,-3.7
2019-01-30T00:44:17.350Z,-3.7
2019-01-30T00:45:17.681Z,-3.7
2019-01-30T00:46:17.553Z,-3.7
2019-01-30T00:47:17.903Z,-3.7
2019-01-30T00:48:17.801Z,-3.6
2019-01-30T00:49:17.666Z,-3.5
2019-01-30T00:50:17.557Z,-3.5
2019-01-30T00:51:17.457Z,-3.5
2019-01-30T00:52:17.356Z,-3.5
2019-01-30T00:53:17.255Z,-3.5
2019-01-30T00:54:17.136Z,-3.5
2019-01-30T00:55:17.446Z,-3.5
2019-01-30T00:56:17.347Z,-3.5
2019-01-30T00:57:17.334Z,-3.5
2019-01-30T00:58:17.253Z,-3.5
2019-01-30T00:59:17.155Z,-3.5
2019-01-30T01:00:17.082Z,-3.5
2019-01-30T01:01:16.984Z,-3.5
2019-01-30T01:02:16.884Z,-3.5
2019-01-30T01:03:16.763Z,-3.4
2019-01-30T01:04:16.672Z,-3.4
2019-01-30T01:05:16.972Z,-3.4
2019-01-30T01:06:16.858Z,-3.4
2019-01-30T01:07:16.741Z,-3.4
2019-01-30T01:08:16.622Z,-3.3
2019-01-30T01:09:16.517Z,-3.3
2019-01-30T01:10:16.404Z,-3.3
2019-01-30T01:11:16.305Z,-3.2
2019-01-30T01:12:16.195Z,-3.2
2019-01-30T01:13:16.092Z,-3.2
2019-01-30T01:14:16.016Z,-3.2
2019-01-30T01:15:16.344Z,-3.2
2019-01-30T01:16:16.314Z,-3.2
2019-01-30T01:17:16.226Z,-3.2
2019-01-30T01:18:16.115Z,-3.2
2019-01-30T01:19:16.010Z,-3.2
2019-01-30T01:20:15.952Z,-3.2
2019-01-30T01:21:15.848Z,-3.1
2019-01-30T01:22:15.889Z,-3.1
2019-01-30T01:23:15.792Z,-3.1
2019-01-30T01:24:15.683Z,-3
2019-01-30T01:25:16.010Z,-3
2019-01-30T01:26:15.977Z,-3
2019-01-30T01:27:15.878Z,-2.9
2019-01-30T01:28:15.757Z,-3
2019-01-30T01:29:15.644Z,-2.9
2019-01-30T01:30:26.218Z,-3
2019-01-30T01:31:26.108Z,-2.9
2019-01-30T01:32:25.998Z,-2.9
2019-01-30T01:33:25.892Z,-2.9
2019-01-30T01:34:25.770Z,-2.8
2019-01-30T01:35:26.098Z,-2.8
2019-01-30T01:36:25.992Z,-2.8
2019-01-30T01:37:26.074Z,-2.8
2019-01-30T01:38:25.965Z,-2.8
2019-01-30T01:39:25.852Z,-2.8
2019-01-30T01:40:25.767Z,-2.8
2019-01-30T01:41:25.750Z,-2.7
2019-01-30T01:42:25.650Z,-2.8
2019-01-30T01:43:25.540Z,-2.7
2019-01-30T01:44:25.421Z,-2.7
2019-01-30T01:45:25.761Z,-2.7
2019-01-30T01:46:25.756Z,-2.7
2019-01-30T01:47:25.666Z,-2.7
2019-01-30T01:48:25.642Z,-2.7
2019-01-30T01:49:25.656Z,-2.6
2019-01-30T01:50:25.556Z,-2.6
2019-01-30T01:51:25.559Z,-2.6
2019-01-30T01:52:25.480Z,-2.5
2019-01-30T01:53:25.360Z,-2.5
2019-01-30T01:54:25.264Z,-2.5
2019-01-30T01:55:25.576Z,-2.5
2019-01-30T01:56:25.458Z,-2.5
2019-01-30T01:57:25.544Z,-2.5
2019-01-30T01:58:25.440Z,-2.4
2019-01-30T01:59:25.329Z,-2.4
2019-01-30T02:00:36.242Z,-2.4
2019-01-30T02:01:36.140Z,-2.3
2019-01-30T02:02:36.053Z,-2.3
2019-01-30T02:03:35.942Z,-2.2
2019-01-30T02:04:35.826Z,-2.3
2019-01-30T02:05:36.128Z,-2.2
2019-01-30T02:06:36.022Z,-2.3
2019-01-30T02:07:35.918Z,-2.3
2019-01-30T02:08:35.838Z,-2.3
2019-01-30T02:09:35.730Z,-2.3
2019-01-30T02:10:36.366Z,-2.2
2019-01-30T02:11:36.270Z,-2.3
2019-01-30T02:12:36.161Z,-2.2
2019-01-30T02:13:36.062Z,-2.3
2019-01-30T02:14:35.964Z,-2.3
2019-01-30T02:15:36.281Z,-2.3
2019-01-30T02:16:36.158Z,-2.3
2019-01-30T02:17:36.048Z,-2.3
2019-01-30T02:18:35.957Z,-2.1
2019-01-30T02:19:35.938Z,-2.1
2019-01-30T02:20:35.848Z,-2
2019-01-30T02:21:35.754Z,-1.9
2019-01-30T02:22:35.626Z,-1.9
2019-01-30T02:23:35.536Z,-1.8
2019-01-30T02:24:35.446Z,-1.7
2019-01-30T02:25:35.771Z,-1.7
2019-01-30T02:26:35.761Z,-1.7
2019-01-30T02:27:35.758Z,-1.6
2019-01-30T02:28:35.656Z,-1.6
2019-01-30T02:29:35.634Z,-1.6
2019-01-30T02:30:48.262Z,-1.7
2019-01-30T02:31:48.301Z,-1.7
2019-01-30T02:32:48.200Z,-1.7
2019-01-30T02:33:48.130Z,-1.7
2019-01-30T02:34:48.128Z,-1.7
2019-01-30T02:35:48.487Z,-1.7
2019-01-30T02:36:48.442Z,-1.6
2019-01-30T02:37:48.542Z,-1.6
2019-01-30T02:38:48.461Z,-1.5
2019-01-30T02:39:48.348Z,-1.5
2019-01-30T02:40:48.247Z,-1.4
2019-01-30T02:41:48.212Z,-1.4
2019-01-30T02:42:48.107Z,-1.5
2019-01-30T02:43:48.042Z,-1.5
2019-01-30T02:44:48.020Z,-1.5
2019-01-30T02:45:48.362Z,-1.5
2019-01-30T02:46:48.253Z,-1.5
2019-01-30T02:47:48.148Z,-1.5
2019-01-30T02:48:48.049Z,-1.5
2019-01-30T02:49:47.948Z,-1.5
2019-01-30T02:50:47.907Z,-1.5
2019-01-30T02:51:47.870Z,-1.6
2019-01-30T02:52:47.773Z,-1.6
2019-01-30T02:53:47.682Z,-1.5
2019-01-30T02:54:47.570Z,-1.5
2019-01-30T02:55:47.922Z,-1.5
2019-01-30T02:56:47.933Z,-1.5
2019-01-30T02:57:47.826Z,-1.5
2019-01-30T02:58:47.729Z,-1.5
2019-01-30T02:59:47.634Z,-1.5
2019-01-30T03:01:00.055Z,-1.4
2019-01-30T03:01:59.948Z,-1.5
2019-01-30T03:02:59.861Z,-1.5
2019-01-30T03:03:59.773Z,-1.5
2019-01-30T03:04:59.674Z,-1.5
2019-01-30T03:06:00.004Z,-1.4
2019-01-30T03:06:59.906Z,-1.4
2019-01-30T03:07:59.881Z,-1.4
2019-01-30T03:08:59.808Z,-1.4
2019-01-30T03:09:59.729Z,-1.4
2019-01-30T03:10:59.706Z,-1.3
2019-01-30T03:11:59.598Z,-1.3
2019-01-30T03:12:59.495Z,-1.3
2019-01-30T03:13:59.408Z,-1.3
2019-01-30T03:14:59.306Z,-1.3
2019-01-30T03:15:59.651Z,-1.3
2019-01-30T03:16:59.560Z,-1.3
2019-01-30T03:17:59.427Z,-1.3
2019-01-30T03:18:59.586Z,-1.4
2019-01-30T03:19:59.477Z,-1.4
2019-01-30T03:20:59.447Z,-1.3
2019-01-30T03:21:59.416Z,-1.3
2019-01-30T03:22:59.324Z,-1.3
2019-01-30T03:23:59.254Z,-1.3
2019-01-30T03:24:59.202Z,-1.3
2019-01-30T03:25:59.526Z,-1.3
2019-01-30T03:26:59.424Z,-1.4
2019-01-30T03:27:59.364Z,-1.3
2019-01-30T03:28:59.275Z,-1.3
2019-01-30T03:29:59.186Z,-1.3
2019-01-30T03:31:19.802Z,-1.2
2019-01-30T03:32:19.788Z,-1.1
2019-01-30T03:33:19.758Z,-1
2019-01-30T03:34:19.736Z,-1
2019-01-30T03:35:19.660Z,-0.9
2019-01-30T03:36:19.992Z,-0.9
2019-01-30T03:37:19.895Z,-0.8
2019-01-30T03:38:19.788Z,-0.8
2019-01-30T03:39:19.698Z,-0.8
2019-01-30T03:40:19.734Z,-0.8
2019-01-30T03:41:19.613Z,-0.7
2019-01-30T03:42:19.539Z,-0.8
2019-01-30T03:43:19.410Z,-0.8
2019-01-30T03:44:19.315Z,-0.8
2019-01-30T03:45:19.197Z,-0.8
2019-01-30T03:46:19.556Z,-0.9
2019-01-30T03:47:19.444Z,-0.9
2019-01-30T03:48:19.370Z,-0.9
2019-01-30T03:49:19.360Z,-0.9
2019-01-30T03:50:19.236Z,-0.9
2019-01-30T03:51:19.189Z,-0.9
2019-01-30T03:52:19.084Z,-0.9
2019-01-30T03:53:18.974Z,-0.9
2019-01-30T03:54:19.047Z,-0.9
2019-01-30T03:55:18.952Z,-0.9
2019-01-30T03:56:19.320Z,-1
2019-01-30T03:57:19.300Z,-1
2019-01-30T03:58:19.193Z,-1
2019-01-30T03:59:19.091Z,-1
2019-01-30T04:00:19.003Z,-1
2019-01-30T04:01:27.491Z,-1
2019-01-30T04:02:27.386Z,-1
2019-01-30T04:03:27.289Z,-1
2019-01-30T04:04:27.282Z,-1
2019-01-30T04:05:27.166Z,-1
2019-01-30T04:06:27.502Z,-1
2019-01-30T04:07:27.444Z,-1
2019-01-30T04:08:27.319Z,-0.9
2019-01-30T04:09:27.221Z,-0.9
2019-01-30T04:10:27.147Z,-0.8
2019-01-30T04:11:27.055Z,-0.8
2019-01-30T04:12:26.973Z,-0.7
2019-01-30T04:13:26.869Z,-0.7
2019-01-30T04:14:26.762Z,-0.6
2019-01-30T04:15:26.656Z,-0.7
2019-01-30T04:16:27.143Z,-0.6
2019-01-30T04:17:27.041Z,-0.5
2019-01-30T04:18:26.965Z,-0.5
2019-01-30T04:19:26.976Z,-0.5
2019-01-30T04:20:26.903Z,-0.4
2019-01-30T04:21:26.794Z,-0.4
2019-01-30T04:22:26.707Z,-0.4
2019-01-30T04:23:26.601Z,-0.3
2019-01-30T04:24:26.499Z,-0.3
2019-01-30T04:25:26.409Z,-0.3
2019-01-30T04:26:26.976Z,-0.2
2019-01-30T04:27:26.889Z,-0.2
2019-01-30T04:28:26.795Z,-0.1
2019-01-30T04:29:26.678Z,-0.1
2019-01-30T04:30:26.587Z,-0.2
2019-01-30T04:31:37.534Z,-0.2
2019-01-30T04:32:38.483Z,-0.2
2019-01-30T04:33:38.401Z,-0.3
2019-01-30T04:34:38.297Z,-0.3
2019-01-30T04:35:38.199Z,-0.3
2019-01-30T04:36:38.637Z,-0.3
2019-01-30T04:37:38.522Z,-0.3
2019-01-30T04:38:38.441Z,-0.3
2019-01-30T04:39:38.337Z,-0.3
2019-01-30T04:40:38.226Z,-0.3
2019-01-30T04:41:38.133Z,-0.2
2019-01-30T04:42:38.141Z,-0.2
2019-01-30T04:43:38.063Z,-0.2
2019-01-30T04:44:38.019Z,-0.1
2019-01-30T04:45:37.978Z,-0.1
2019-01-30T04:46:38.289Z,-0.1
2019-01-30T04:47:38.195Z,0
2019-01-30T04:48:38.087Z,0
2019-01-30T04:49:37.991Z,0.1
2019-01-30T04:50:38.012Z,0
2019-01-30T04:51:37.991Z,0
2019-01-30T04:52:37.878Z,0
2019-01-30T04:53:37.791Z,0.1
2019-01-30T04:54:37.671Z,0
2019-01-30T04:55:37.584Z,0
2019-01-30T04:56:37.870Z,-0.1
2019-01-30T04:57:37.745Z,-0.1
2019-01-30T04:58:37.635Z,-0.1
2019-01-30T04:59:37.515Z,-0.1
2019-01-30T05:00:37.430Z,-0.1
2019-01-30T05:01:37.327Z,-0.1
2019-01-30T05:02:49.111Z,-0.1
2019-01-30T05:03:49.135Z,-0.1
2019-01-30T05:04:49.011Z,-0.2
2019-01-30T05:05:48.965Z,-0.2
2019-01-30T05:06:49.291Z,-0.2
2019-01-30T05:07:49.165Z,-0.2
2019-01-30T05:08:49.111Z,-0.2
2019-01-30T05:09:49.007Z,-0.2
2019-01-30T05:10:48.947Z,-0.2
2019-01-30T05:11:48.849Z,-0.2
2019-01-30T05:12:48.750Z,-0.2
2019-01-30T05:13:48.697Z,-0.2
2019-01-30T05:14:48.596Z,-0.3
2019-01-30T05:15:48.497Z,-0.3
2019-01-30T05:16:48.849Z,-0.3
2019-01-30T05:17:48.745Z,-0.3
2019-01-30T05:18:48.649Z,-0.3
2019-01-30T05:19:48.539Z,-0.2
2019-01-30T05:20:48.427Z,-0.2
2019-01-30T05:21:48.336Z,-0.2
2019-01-30T05:22:48.273Z,-0.2
2019-01-30T05:23:48.277Z,-0.2
2019-01-30T05:24:48.176Z,-0.2
2019-01-30T05:25:48.115Z,-0.2
2019-01-30T05:26:48.432Z,-0.2
2019-01-30T05:27:48.341Z,-0.3
2019-01-30T05:28:48.255Z,-0.3
2019-01-30T05:29:48.138Z,-0.3
2019-01-30T05:30:48.034Z,-0.2
2019-01-30T05:31:47.947Z,-0.2
2019-01-30T05:32:47.993Z,-0.3
2019-01-30T05:33:47.896Z,-0.3
2019-01-30T05:34:47.797Z,-0.3
2019-01-30T05:35:47.703Z,-0.3
2019-01-30T05:36:48.040Z,-0.2
2019-01-30T05:37:50.969Z,-0.3
2019-01-30T05:38:51.558Z,-0.3
2019-01-30T05:39:51.453Z,-0.2
2019-01-30T05:40:51.350Z,-0.2
2019-01-30T05:41:51.247Z,-0.2
2019-01-30T05:42:51.156Z,-0.1
2019-01-30T05:43:51.097Z,0
2019-01-30T05:44:50.979Z,0
2019-01-30T05:45:50.869Z,0
2019-01-30T05:46:51.181Z,0.1
2019-01-30T05:47:51.090Z,0.2
2019-01-30T05:48:51.035Z,0.2
2019-01-30T05:49:50.907Z,0.2
2019-01-30T05:50:50.831Z,0.3
2019-01-30T05:51:50.739Z,0.4
2019-01-30T05:52:50.652Z,0.4
2019-01-30T05:53:50.558Z,0.3
2019-01-30T05:54:50.511Z,0.4
2019-01-30T05:55:50.398Z,0.4
2019-01-30T05:56:50.829Z,0.4
2019-01-30T05:57:50.861Z,0.5
2019-01-30T05:58:50.783Z,0.5
2019-01-30T05:59:50.712Z,0.5
2019-01-30T06:00:50.619Z,0.6
2019-01-30T06:01:50.569Z,0.6
2019-01-30T06:02:50.469Z,0.6
2019-01-30T06:03:50.353Z,0.6
2019-01-30T06:04:50.269Z,0.7
2019-01-30T06:05:50.193Z,0.8
2019-01-30T06:06:50.529Z,0.8
2019-01-30T06:07:50.443Z,0.7
2019-01-30T06:08:50.376Z,0.8
2019-01-30T06:09:50.266Z,0.8
2019-01-30T06:10:50.193Z,0.7
2019-01-30T06:11:50.091Z,0.8
2019-01-30T06:12:49.991Z,0.8
2019-01-30T06:13:49.885Z,0.8
2019-01-30T06:14:49.774Z,0.7
2019-01-30T06:15:49.721Z,0.7
2019-01-30T06:16:50.067Z,0.7
2019-01-30T06:17:49.963Z,0.6
2019-01-30T06:18:49.856Z,0.6
2019-01-30T06:19:49.721Z,0.6
2019-01-30T06:20:49.614Z,0.6
2019-01-30T06:21:49.525Z,0.6
2019-01-30T06:22:49.402Z,0.5
2019-01-30T06:23:49.309Z,0.5
2019-01-30T06:24:49.231Z,0.4
2019-01-30T06:25:49.123Z,0.4
2019-01-30T06:26:49.604Z,0.3
2019-01-30T06:27:49.506Z,0.3
2019-01-30T06:28:49.407Z,0.4
2019-01-30T06:29:49.275Z,0.4
2019-01-30T06:30:49.170Z,0.4
2019-01-30T06:31:49.081Z,0.4
2019-01-30T06:32:48.950Z,0.4
2019-01-30T06:33:48.839Z,0.4
2019-01-30T06:34:48.742Z,0.4
2019-01-30T06:35:48.762Z,0.3
2019-01-30T06:36:49.118Z,0.3
2019-01-30T06:37:49.001Z,0.3
2019-01-30T06:38:48.891Z,0.3
2019-01-30T06:39:48.767Z,0.4
2019-01-30T06:40:48.649Z,0.3
2019-01-30T06:41:48.587Z,0.3
2019-01-30T06:42:48.475Z,0.3
2019-01-30T06:43:48.367Z,0.3
2019-01-30T06:44:48.241Z,0.3
2019-01-30T06:45:48.179Z,0.3
2019-01-30T06:46:48.525Z,0.3
2019-01-30T06:47:48.472Z,0.3
2019-01-30T06:48:48.385Z,0.3
2019-01-30T06:49:48.267Z,0.3
2019-01-30T06:50:48.157Z,0.3
2019-01-30T06:51:48.063Z,0.4
2019-01-30T06:52:47.955Z,0.3
2019-01-30T06:53:47.837Z,0.4
2019-01-30T06:54:47.709Z,0.4
2019-01-30T06:55:47.592Z,0.3
2019-01-30T06:56:47.941Z,0.3
2019-01-30T06:57:47.847Z,0.3
2019-01-30T06:58:47.746Z,0.3
2019-01-30T06:59:47.766Z,0.3
2019-01-30T07:00:47.658Z,0.3
2019-01-30T07:01:47.553Z,0.3
2019-01-30T07:02:47.446Z,0.3
2019-01-30T07:03:47.350Z,0.3
2019-01-30T07:04:47.241Z,0.3
2019-01-30T07:05:47.148Z,0.3
2019-01-30T07:06:47.538Z,0.3
2019-01-30T07:07:47.421Z,0.3
2019-01-30T07:08:47.405Z,0.4
2019-01-30T07:09:47.292Z,0.4
2019-01-30T07:10:47.197Z,0.5
2019-01-30T07:11:47.118Z,0.5
2019-01-30T07:12:47.101Z,0.5
2019-01-30T07:13:47.090Z,0.6
2019-01-30T07:14:46.973Z,0.7
2019-01-30T07:15:46.894Z,0.7
2019-01-30T07:16:47.271Z,0.8
2019-01-30T07:17:47.241Z,0.9
2019-01-30T07:18:47.160Z,0.9
2019-01-30T07:19:47.046Z,0.9
2019-01-30T07:20:46.938Z,1
2019-01-30T07:21:46.852Z,1
2019-01-30T07:22:46.766Z,0.9
2019-01-30T07:23:46.663Z,0.9
2019-01-30T07:24:46.620Z,0.9
2019-01-30T07:25:46.512Z,0.9
2019-01-30T07:26:46.915Z,0.9
2019-01-30T07:27:46.824Z,0.9
2019-01-30T07:28:46.749Z,0.9
2019-01-30T07:29:46.635Z,0.9
2019-01-30T07:30:46.531Z,0.8
2019-01-30T07:31:46.407Z,0.8
2019-01-30T07:32:46.294Z,0.8
2019-01-30T07:33:46.193Z,0.8
2019-01-30T07:34:46.088Z,0.8
2019-01-30T07:35:45.974Z,0.8
2019-01-30T07:36:46.274Z,0.7
2019-01-30T07:37:46.162Z,0.7
2019-01-30T07:38:46.146Z,0.7
2019-01-30T07:39:46.032Z,0.7
2019-01-30T07:40:46.032Z,0.7
2019-01-30T07:41:45.918Z,0.7
2019-01-30T07:42:45.840Z,0.8
2019-01-30T07:43:45.894Z,0.7
2019-01-30T07:44:51.682Z,0.8
2019-01-30T07:45:51.578Z,0.7
2019-01-30T07:46:51.866Z,0.7
2019-01-30T07:47:51.771Z,0.8
2019-01-30T07:48:51.670Z,0.8
2019-01-30T07:49:51.573Z,0.7
2019-01-30T07:50:51.454Z,0.7
2019-01-30T07:51:51.354Z,0.8
2019-01-30T07:52:51.274Z,0.8
2019-01-30T07:53:51.188Z,0.7
2019-01-30T07:54:51.102Z,0.7
2019-01-30T07:55:51.007Z,0.7
2019-01-30T07:56:51.320Z,0.7
2019-01-30T07:57:51.228Z,0.7
2019-01-30T07:58:51.120Z,0.7
2019-01-30T07:59:51.014Z,0.7
2019-01-30T08:00:50.934Z,0.8
2019-01-30T08:01:50.838Z,0.8
2019-01-30T08:02:54.259Z,0.8
2019-01-30T08:03:54.156Z,0.9
2019-01-30T08:04:54.054Z,0.9
2019-01-30T08:05:53.948Z,1
2019-01-30T08:06:54.245Z,1.1
2019-01-30T08:07:54.140Z,1.1
2019-01-30T08:08:54.034Z,1.1
2019-01-30T08:09:53.942Z,1.2
2019-01-30T08:10:53.844Z,1.2
2019-01-30T08:11:53.753Z,1.3
2019-01-30T08:12:53.644Z,1.4
2019-01-30T08:13:53.520Z,1.4
2019-01-30T08:14:53.443Z,1.4
2019-01-30T08:15:53.340Z,1.4
2019-01-30T08:16:53.667Z,1.5
2019-01-30T08:17:53.559Z,1.5
2019-01-30T08:18:53.463Z,1.5
2019-01-30T08:19:53.366Z,1.5
2019-01-30T08:20:53.250Z,1.5
2019-01-30T08:21:53.278Z,1.5
2019-01-30T08:22:53.489Z,1.5
2019-01-30T08:23:53.874Z,1.6
2019-01-30T08:24:55.189Z,1.5
2019-01-30T08:25:56.210Z,1.5
2019-01-30T08:26:57.704Z,1.5
2019-01-30T08:27:59.258Z,1.4
2019-01-30T08:29:00.244Z,1.4
2019-01-30T08:30:01.683Z,1.4
2019-01-30T08:31:03.728Z,1.4
2019-01-30T08:32:05.663Z,1.4
2019-01-30T08:33:07.421Z,1.4
2019-01-30T08:34:07.736Z,1.5
2019-01-30T08:35:07.705Z,1.5
2019-01-30T08:36:07.607Z,1.4
2019-01-30T08:37:08.216Z,1.4
2019-01-30T08:38:08.106Z,1.4
2019-01-30T08:39:08.001Z,1.5
2019-01-30T08:40:07.900Z,1.5
2019-01-30T08:41:07.813Z,1.6
2019-01-30T08:42:07.731Z,1.7
2019-01-30T08:43:07.669Z,1.7
2019-01-30T08:44:07.552Z,1.8
2019-01-30T08:45:07.532Z,1.9
2019-01-30T08:46:07.430Z,1.9
2019-01-30T08:47:07.969Z,1.9
2019-01-30T08:48:07.890Z,2
2019-01-30T08:49:07.889Z,2.1
2019-01-30T08:50:07.789Z,2.1
2019-01-30T08:51:07.681Z,2.2
2019-01-30T08:52:07.600Z,2.2
2019-01-30T08:53:07.530Z,2.2
2019-01-30T08:54:07.466Z,2.3
2019-01-30T08:55:07.381Z,2.3
2019-01-30T08:56:07.295Z,2.3
2019-01-30T08:57:23.104Z,2.4
2019-01-30T08:58:23.026Z,2.5
2019-01-30T08:59:22.922Z,2.4
2019-01-30T09:00:22.823Z,2.4
2019-01-30T09:01:22.728Z,2.4
2019-01-30T09:02:22.625Z,2.5
2019-01-30T09:03:22.572Z,2.4
2019-01-30T09:04:22.461Z,2.4
2019-01-30T09:05:22.349Z,2.4
2019-01-30T09:06:22.242Z,2.4
2019-01-30T09:07:22.592Z,2.3
2019-01-30T09:08:22.491Z,2.3
2019-01-30T09:09:22.517Z,2.3
2019-01-30T09:10:22.422Z,2.3
2019-01-30T09:11:22.339Z,2.2
2019-01-30T09:12:22.245Z,2.2
2019-01-30T09:13:22.176Z,2.2
2019-01-30T09:14:22.083Z,2.2
2019-01-30T09:15:21.976Z,2.1
2019-01-30T09:16:21.882Z,2.1
2019-01-30T09:17:22.192Z,2.2
2019-01-30T09:18:22.099Z,2.1
2019-01-30T09:19:21.994Z,2.1
2019-01-30T09:20:21.888Z,2.1
2019-01-30T09:21:21.814Z,2.1
2019-01-30T09:22:21.720Z,2.2
2019-01-30T09:23:21.615Z,2.2
2019-01-30T09:24:21.545Z,2.2
2019-01-30T09:25:21.455Z,2.3
2019-01-30T09:26:21.371Z,2.3
2019-01-30T09:27:24.053Z,2.3
2019-01-30T09:28:24.235Z,2.3
2019-01-30T09:29:24.134Z,2.3
2019-01-30T09:30:24.029Z,2.3
2019-01-30T09:31:23.945Z,2.3
2019-01-30T09:32:23.821Z,2.3
2019-01-30T09:33:26.799Z,2.3
2019-01-30T09:34:26.852Z,2.2
2019-01-30T09:35:26.741Z,2
2019-01-30T09:36:26.775Z,1.7
2019-01-30T09:37:27.951Z,1.8
2019-01-30T09:38:27.855Z,1.8
2019-01-30T09:39:27.813Z,1.6
2019-01-30T09:40:27.853Z,1.6
2019-01-30T09:41:27.760Z,1.6
2019-01-30T09:42:27.856Z,1.6
2019-01-30T09:43:27.852Z,1.6
2019-01-30T09:44:27.976Z,1.6
2019-01-30T09:45:27.984Z,1.6
2019-01-30T09:46:27.960Z,1.5
2019-01-30T09:47:28.346Z,1.5
2019-01-30T09:48:28.358Z,1.5
2019-01-30T09:49:28.395Z,1.4
2019-01-30T09:50:28.438Z,1.3
2019-01-30T09:51:28.425Z,1.3
2019-01-30T09:52:28.346Z,1.4
2019-01-30T09:53:28.291Z,1.4
2019-01-30T09:54:28.356Z,1.4
2019-01-30T09:55:28.291Z,1.4
2019-01-30T09:56:28.321Z,1.4
2019-01-30T09:57:28.695Z,1.4
2019-01-30T09:58:28.617Z,1.4
2019-01-30T09:59:28.511Z,1.4
2019-01-30T10:00:28.411Z,1.5
2019-01-30T10:01:28.299Z,1.5
2019-01-30T10:02:28.201Z,1.5
2019-01-30T10:03:37.182Z,1.4
2019-01-30T10:04:37.121Z,1.4
2019-01-30T10:05:37.045Z,1.4
2019-01-30T10:06:36.949Z,1.4
2019-01-30T10:07:37.277Z,1.4
2019-01-30T10:08:37.195Z,1.3
2019-01-30T10:09:38.399Z,1.3
2019-01-30T10:10:38.285Z,1.3
2019-01-30T10:11:38.163Z,1.3
2019-01-30T10:12:38.062Z,1.4
2019-01-30T10:13:38.155Z,1.4
2019-01-30T10:14:38.077Z,1.4
2019-01-30T10:15:37.953Z,1.4
2019-01-30T10:16:37.947Z,1.3
2019-01-30T10:17:38.275Z,1.3
2019-01-30T10:18:38.212Z,1.3
2019-01-30T10:19:42.319Z,1.4
2019-01-30T10:20:42.217Z,1.5
2019-01-30T10:21:42.128Z,1.4
2019-01-30T10:22:42.023Z,1.5
2019-01-30T10:23:41.951Z,1.5
2019-01-30T10:24:41.851Z,1.5
2019-01-30T10:25:41.753Z,1.6
2019-01-30T10:26:41.657Z,1.6
2019-01-30T10:27:41.997Z,1.7
2019-01-30T10:28:41.881Z,1.7
2019-01-30T10:29:41.787Z,1.8
2019-01-30T10:30:41.689Z,1.8
2019-01-30T10:31:41.587Z,1.9
2019-01-30T10:32:41.505Z,2.1
2019-01-30T10:33:47.392Z,2.2
2019-01-30T10:34:47.306Z,2.2
2019-01-30T10:35:47.222Z,2.3
2019-01-30T10:36:47.114Z,2.4
2019-01-30T10:37:47.462Z,2.5
2019-01-30T10:38:47.402Z,2.5
2019-01-30T10:39:47.300Z,2.6
2019-01-30T10:40:47.203Z,2.6
2019-01-30T10:41:47.205Z,2.7
2019-01-30T10:42:47.079Z,2.5
2019-01-30T10:43:46.997Z,2.5
2019-01-30T10:44:46.866Z,2.5
2019-01-30T10:45:46.769Z,2.4
2019-01-30T10:46:46.678Z,2.4
2019-01-30T10:47:47.012Z,2.3
2019-01-30T10:48:46.913Z,2.2
2019-01-30T10:49:46.810Z,2.2
2019-01-30T10:50:46.770Z,2.1
2019-01-30T10:51:46.671Z,2.1
2019-01-30T10:52:46.591Z,2.1
2019-01-30T10:53:48.747Z,2
2019-01-30T10:54:48.660Z,1.9
2019-01-30T10:55:48.581Z,1.8
2019-01-30T10:56:48.644Z,1.8
2019-01-30T10:57:49.004Z,1.8
2019-01-30T10:58:48.902Z,1.8
2019-01-30T10:59:48.793Z,1.9
2019-01-30T11:00:48.684Z,1.9
2019-01-30T11:01:48.617Z,2
2019-01-30T11:02:48.511Z,2
2019-01-30T11:03:58.110Z,2
2019-01-30T11:04:58.024Z,2
2019-01-30T11:05:57.943Z,1.9
2019-01-30T11:06:57.840Z,2
2019-01-30T11:07:58.175Z,1.9
2019-01-30T11:08:58.087Z,1.9
2019-01-30T11:09:57.993Z,1.9
2019-01-30T11:11:08.787Z,2
2019-01-30T11:12:08.726Z,2
2019-01-30T11:13:08.629Z,2.1
2019-01-30T11:14:08.532Z,2.1
2019-01-30T11:15:08.429Z,2.2
2019-01-30T11:16:08.349Z,2.2
2019-01-30T11:17:09.311Z,2.1
2019-01-30T11:18:09.719Z,2.2
2019-01-30T11:19:09.643Z,2.1
2019-01-30T11:20:09.538Z,2.2
2019-01-30T11:21:09.457Z,2.3
2019-01-30T11:22:09.354Z,2.3
2019-01-30T11:23:09.231Z,2.3
2019-01-30T11:24:09.118Z,2.5
2019-01-30T11:25:09.005Z,2.5
2019-01-30T11:26:09.030Z,2.5
2019-01-30T11:27:08.957Z,2.4
2019-01-30T11:28:09.261Z,2.5
2019-01-30T11:29:09.165Z,2.5
2019-01-30T11:30:09.065Z,2.6
2019-01-30T11:31:08.967Z,2.6
2019-01-30T11:32:08.991Z,2.7
2019-01-30T11:33:08.889Z,2.7
2019-01-30T11:34:08.885Z,2.6
2019-01-30T11:35:08.787Z,2.5
2019-01-30T11:36:08.665Z,2.3
2019-01-30T11:37:08.589Z,2.3
2019-01-30T11:38:09.753Z,2.4
2019-01-30T11:39:09.663Z,2.4
2019-01-30T11:40:09.577Z,2.5
2019-01-30T11:41:09.463Z,2.5
2019-01-30T11:42:09.383Z,2.5
2019-01-30T11:43:09.263Z,2.5
2019-01-30T11:44:09.153Z,2.6
2019-01-30T11:45:09.089Z,2.7
2019-01-30T11:46:08.979Z,2.7
2019-01-30T11:47:08.894Z,2.8
2019-01-30T11:48:09.239Z,2.8
2019-01-30T11:49:09.121Z,2.9
2019-01-30T11:50:09.019Z,2.9
2019-01-30T11:51:08.906Z,2.9
2019-01-30T11:52:08.817Z,3
2019-01-30T11:53:08.749Z,3.1
2019-01-30T11:54:08.670Z,3
2019-01-30T11:55:08.565Z,3
2019-01-30T11:56:08.456Z,2.9
2019-01-30T11:57:08.393Z,2.9
2019-01-30T11:58:08.787Z,2.9
2019-01-30T11:59:08.731Z,2.9
2019-01-30T12:00:08.617Z,2.9
2019-01-30T12:01:08.508Z,2.9
2019-01-30T12:02:08.415Z,3
2019-01-30T12:03:08.333Z,3
2019-01-30T12:04:18.658Z,3
2019-01-30T12:05:18.539Z,3.1
2019-01-30T12:06:18.441Z,3.1
2019-01-30T12:07:18.348Z,3.1
2019-01-30T12:08:18.678Z,3
2019-01-30T12:09:18.599Z,3
2019-01-30T12:10:18.504Z,3.1
2019-01-30T12:11:18.477Z,3.2
2019-01-30T12:12:18.367Z,3.2
2019-01-30T12:13:18.245Z,3.2
2019-01-30T12:14:18.154Z,3.2
2019-01-30T12:15:18.017Z,3.2
2019-01-30T12:16:17.945Z,3.2
2019-01-30T12:17:17.833Z,3.2
2019-01-30T12:18:18.243Z,3.1
2019-01-30T12:19:18.150Z,3.1
2019-01-30T12:20:18.054Z,3
2019-01-30T12:21:17.943Z,3
2019-01-30T12:22:17.826Z,3
2019-01-30T12:23:17.709Z,3
2019-01-30T12:24:17.647Z,3
2019-01-30T12:25:17.641Z,2.9
2019-01-30T12:26:17.552Z,3
2019-01-30T12:27:17.448Z,3
2019-01-30T12:28:21.044Z,2.8
2019-01-30T12:29:21.013Z,2.8
2019-01-30T12:30:20.903Z,2.9
2019-01-30T12:31:20.800Z,2.9
2019-01-30T12:32:20.691Z,2.9
2019-01-30T12:33:20.594Z,2.9
2019-01-30T12:34:29.090Z,2.9
2019-01-30T12:35:28.998Z,2.9
2019-01-30T12:36:28.903Z,2.9
2019-01-30T12:37:28.809Z,2.9
2019-01-30T12:38:29.271Z,2.9
2019-01-30T12:39:29.174Z,2.9
2019-01-30T12:40:29.104Z,2.8
2019-01-30T12:41:28.987Z,2.9
2019-01-30T12:42:28.869Z,2.9
2019-01-30T12:43:28.754Z,2.9
2019-01-30T12:44:28.663Z,2.9
2019-01-30T12:45:28.569Z,2.9
2019-01-30T12:46:28.467Z,2.9
2019-01-30T12:47:28.361Z,2.8
2019-01-30T12:48:28.687Z,2.7
2019-01-30T12:49:28.588Z,2.7
2019-01-30T12:50:28.492Z,2.8
2019-01-30T12:51:28.426Z,2.8
2019-01-30T12:52:28.319Z,2.9
2019-01-30T12:53:28.210Z,2.9
2019-01-30T12:54:28.103Z,2.8
2019-01-30T12:55:30.177Z,2.8
2019-01-30T12:56:30.085Z,2.6
2019-01-30T12:57:29.994Z,2.5
2019-01-30T12:58:30.323Z,2.6
2019-01-30T12:59:30.290Z,2.6
2019-01-30T13:00:30.168Z,2.7
2019-01-30T13:01:31.604Z,2.8
2019-01-30T13:02:31.486Z,2.8
2019-01-30T13:03:31.610Z,2.9
2019-01-30T13:04:39.573Z,2.9
2019-01-30T13:05:39.566Z,2.9
2019-01-30T13:06:39.496Z,3
2019-01-30T13:07:39.378Z,3
2019-01-30T13:08:39.674Z,3
2019-01-30T13:09:39.576Z,3
2019-01-30T13:10:39.500Z,3
2019-01-30T13:11:39.495Z,3.1
2019-01-30T13:12:39.400Z,3.1
2019-01-30T13:13:39.279Z,3.1
2019-01-30T13:14:39.178Z,3
2019-01-30T13:15:39.078Z,3
2019-01-30T13:16:38.980Z,3
2019-01-30T13:17:38.978Z,2.9
2019-01-30T13:18:48.580Z,2.9
2019-01-30T13:19:48.444Z,2.9
2019-01-30T13:20:48.414Z,3
2019-01-30T13:21:48.340Z,3
2019-01-30T13:22:48.234Z,3
2019-01-30T13:23:48.232Z,3
2019-01-30T13:24:48.114Z,3
2019-01-30T13:25:48.025Z,3
2019-01-30T13:26:47.958Z,3
2019-01-30T13:27:47.874Z,3
2019-01-30T13:28:48.192Z,3.1
2019-01-30T13:29:48.068Z,3.1
2019-01-30T13:30:47.984Z,3
2019-01-30T13:31:47.910Z,3
2019-01-30T13:32:47.818Z,3
2019-01-30T13:33:47.710Z,3
2019-01-30T13:34:49.698Z,3
2019-01-30T13:35:49.612Z,2.9
2019-01-30T13:36:49.746Z,2.9
2019-01-30T13:37:49.642Z,2.9
2019-01-30T13:38:50.002Z,2.9
2019-01-30T13:39:50.015Z,2.9
2019-01-30T13:40:49.914Z,2.9
2019-01-30T13:41:49.838Z,2.8
2019-01-30T13:42:52.520Z,2.8
2019-01-30T13:43:52.416Z,2.8
2019-01-30T13:44:52.320Z,2.8
2019-01-30T13:45:52.217Z,2.8
2019-01-30T13:46:52.133Z,2.8
2019-01-30T13:47:52.086Z,2.8